Aérodrome :
LOGIN :

S'inscrire | Disclaimer

   EN    FR    IT 

 










Légende :    VFR   VFR Marginal   IFR   IFR Intensif   IFR Très Intensif
Visi : 
Plafond : 
>= 8 km
>= 3000ft
5 à 8 km
1000 à 3000 ft
1500m à 5 km
500 à 1000 ft
800 à 1500m
200 à 500 ft
< 800m
< 200 ft
Symboles :   Orages  Brouillard  Fortes neiges  Fortes précipitations  Vent > 20 kt
SIGMETs :   Divers  Orages  Givrage  Turbulence  Onde Orograph.  Cendres Volcan.






- Altitude de l'aérodrome : 396 ft


LFOZ - Orléans St Denis

DERNIER METAR :
  • 071430Z AUTO 23006KT 9999 BKN037 OVC043 10/08 Q1019

METARs EXPIRÉS :
  • 071400Z AUTO 24009KT 9999 FEW012 OVC040 11/07 Q1019
  • 071330Z AUTO 21008KT 9999 SCT015 SCT021 OVC045 11/09 Q1019
  • 071300Z AUTO 22011KT 9999 BKN012 BKN020 OVC044 11/08 Q1019
  • 071230Z AUTO 24007KT 9999 BKN012 BKN018 OVC043 11/09 Q1019
  • 071200Z AUTO 24006KT 9999 BKN009 BKN014 OVC042 11/09 Q1020

TAF N/A



MET'MAP, la Météo Aéronautique d'un coup d'oeil ! - Copyright ORBIFLY Décembre 2007 - Disclaimer

ORBIFLY MET'MAP TEAM :

Programmation & Développement : Alexandra Zaïnal
Sur une idée originale de : Baudouin d'Aumeries
Assistance à la programmation : Marc-Olivier Méhu
Soutien technique & logistique : Manuel Goepfert

Contact : metmap@orbifly.com




SOURCES & CREDITS :

   NOAA